createdAt,value
2019-04-05T00:00:49.451Z,0.00
2019-04-05T00:01:49.394Z,0.00
2019-04-05T00:02:49.365Z,0.00
2019-04-05T00:03:49.314Z,0.00
2019-04-05T00:04:49.269Z,0.00
2019-04-05T00:05:49.247Z,0.00
2019-04-05T00:06:49.187Z,0.00
2019-04-05T00:07:49.153Z,0.00
2019-04-05T00:08:49.085Z,0.00
2019-04-05T00:09:49.045Z,0.00
2019-04-05T00:10:49.007Z,0.00
2019-04-05T00:11:48.965Z,0.00
2019-04-05T00:12:48.940Z,0.00
2019-04-05T00:13:48.875Z,0.00
2019-04-05T00:14:48.836Z,0.00
2019-04-05T00:15:48.775Z,0.00
2019-04-05T00:16:48.753Z,0.00
2019-04-05T00:17:48.691Z,0.00
2019-04-05T00:18:48.672Z,0.00
2019-04-05T00:19:48.604Z,0.00
2019-04-05T00:20:48.555Z,0.00
2019-04-05T00:21:48.508Z,0.00
2019-04-05T00:22:48.458Z,0.00
2019-04-05T00:23:48.443Z,0.00
2019-04-05T00:24:48.394Z,0.00
2019-04-05T00:25:48.330Z,0.00
2019-04-05T00:26:48.283Z,0.00
2019-04-05T00:27:48.235Z,0.00
2019-04-05T00:28:48.219Z,0.00
2019-04-05T00:29:48.156Z,0.00
2019-04-05T00:30:48.111Z,0.00
2019-04-05T00:31:48.067Z,0.00
2019-04-05T00:32:48.019Z,0.00
2019-04-05T00:33:47.978Z,0.00
2019-04-05T00:34:47.957Z,0.00
2019-04-05T00:35:47.880Z,0.00
2019-04-05T00:36:47.842Z,0.00
2019-04-05T00:37:47.803Z,0.00
2019-04-05T00:38:47.768Z,0.00
2019-04-05T00:39:47.707Z,0.00
2019-04-05T00:40:47.691Z,0.00
2019-04-05T00:41:47.625Z,0.00
2019-04-05T00:42:47.580Z,0.00
2019-04-05T00:43:47.541Z,0.00
2019-04-05T00:44:47.503Z,0.00
2019-04-05T00:45:47.446Z,0.00
2019-04-05T00:46:47.423Z,0.00
2019-04-05T00:47:47.347Z,0.00
2019-04-05T00:48:47.304Z,0.00
2019-04-05T00:49:47.267Z,0.00
2019-04-05T00:50:47.219Z,0.00
2019-04-05T00:51:47.183Z,0.00
2019-04-05T00:52:47.166Z,0.00
2019-04-05T00:53:47.084Z,0.00
2019-04-05T00:54:47.066Z,0.00
2019-04-05T00:55:47.001Z,0.00
2019-04-05T00:56:46.958Z,0.00
2019-04-05T00:57:49.433Z,0.00
2019-04-05T00:58:46.862Z,0.00
2019-04-05T00:59:46.841Z,0.00
2019-04-05T01:00:46.775Z,0.00
2019-04-05T01:01:46.745Z,0.00
2019-04-05T01:02:46.697Z,0.00
2019-04-05T01:03:46.654Z,0.00
2019-04-05T01:04:46.662Z,0.00
2019-04-05T01:05:46.582Z,0.00
2019-04-05T01:06:46.509Z,0.00
2019-04-05T01:07:46.489Z,0.00
2019-04-05T01:08:46.434Z,0.00
2019-04-05T01:09:46.378Z,0.00
2019-04-05T01:10:46.334Z,0.00
2019-04-05T01:11:46.305Z,0.00
2019-04-05T01:12:46.242Z,0.00
2019-04-05T01:13:46.228Z,0.00
2019-04-05T01:14:46.160Z,0.00
2019-04-05T01:15:46.115Z,0.00
2019-04-05T01:16:46.071Z,0.00
2019-04-05T01:17:46.027Z,0.00
2019-04-05T01:18:45.998Z,0.00
2019-04-05T01:19:45.928Z,0.00
2019-04-05T01:20:45.886Z,0.00
2019-04-05T01:21:45.847Z,0.00
2019-04-05T01:22:45.811Z,0.00
2019-04-05T01:23:45.783Z,0.00
2019-04-05T01:24:45.714Z,0.00
2019-04-05T01:25:45.688Z,0.00
2019-04-05T01:26:45.623Z,0.00
2019-04-05T01:27:48.353Z,0.00
2019-04-05T01:28:45.542Z,0.00
2019-04-05T01:29:45.486Z,0.00
2019-04-05T01:30:45.467Z,0.00
2019-04-05T01:31:45.403Z,0.00
2019-04-05T01:32:45.361Z,0.00
2019-04-05T01:33:45.323Z,0.00
2019-04-05T01:34:45.273Z,0.00
2019-04-05T01:35:45.263Z,0.00
2019-04-05T01:36:45.186Z,0.00
2019-04-05T01:37:45.127Z,0.00
2019-04-05T01:38:45.086Z,0.00
2019-04-05T01:39:45.045Z,0.00
2019-04-05T01:40:45.004Z,0.00
2019-04-05T01:41:44.992Z,0.00
2019-04-05T01:42:44.916Z,0.00
2019-04-05T01:43:44.865Z,0.00
2019-04-05T01:44:44.819Z,0.00
2019-04-05T01:45:53.608Z,0.00
2019-04-05T01:46:44.734Z,0.00
2019-04-05T01:47:44.722Z,0.00
2019-04-05T01:48:44.652Z,0.00
2019-04-05T01:49:44.603Z,0.00
2019-04-05T01:50:44.555Z,0.00
2019-04-05T01:51:44.509Z,0.00
2019-04-05T01:52:44.474Z,0.00
2019-04-05T01:53:44.461Z,0.00
2019-04-05T01:54:44.389Z,0.00
2019-04-05T01:55:44.368Z,0.00
2019-04-05T01:56:44.291Z,0.00
2019-04-05T01:57:44.243Z,0.00
2019-04-05T01:58:44.220Z,0.00
2019-04-05T01:59:44.189Z,0.00
2019-04-05T02:00:44.124Z,0.00
2019-04-05T02:01:44.063Z,0.00
2019-04-05T02:02:44.025Z,0.00
2019-04-05T02:03:43.987Z,0.00
2019-04-05T02:04:43.958Z,0.00
2019-04-05T02:05:43.894Z,0.00
2019-04-05T02:06:43.855Z,0.00
2019-04-05T02:07:43.811Z,0.00
2019-04-05T02:08:43.766Z,0.00
2019-04-05T02:09:43.745Z,0.00
2019-04-05T02:10:43.669Z,0.00
2019-04-05T02:11:43.630Z,0.00
2019-04-05T02:12:43.574Z,0.00
2019-04-05T02:13:43.545Z,0.00
2019-04-05T02:14:43.498Z,0.00
2019-04-05T02:15:43.477Z,0.00
2019-04-05T02:16:43.407Z,0.00
2019-04-05T02:17:43.389Z,0.00
2019-04-05T02:18:43.328Z,0.00
2019-04-05T02:19:43.278Z,0.00
2019-04-05T02:20:43.255Z,0.00
2019-04-05T02:21:43.183Z,0.00
2019-04-05T02:22:43.136Z,0.00
2019-04-05T02:23:43.120Z,0.00
2019-04-05T02:24:43.045Z,0.00
2019-04-05T02:25:43.030Z,0.00
2019-04-05T02:26:42.965Z,0.00
2019-04-05T02:27:42.923Z,0.00
2019-04-05T02:28:42.877Z,0.00
2019-04-05T02:29:42.850Z,0.00
2019-04-05T02:30:42.780Z,0.00
2019-04-05T02:31:42.771Z,0.00
2019-04-05T02:32:42.702Z,0.00
2019-04-05T02:33:42.656Z,0.00
2019-04-05T02:34:42.610Z,0.00
2019-04-05T02:35:42.583Z,0.00
2019-04-05T02:36:42.539Z,0.00
2019-04-05T02:37:42.479Z,0.00
2019-04-05T02:38:42.436Z,0.00
2019-04-05T02:39:42.397Z,0.00
2019-04-05T02:40:42.348Z,0.00
2019-04-05T02:41:42.344Z,0.00
2019-04-05T02:42:42.253Z,0.00
2019-04-05T02:43:42.211Z,0.00
2019-04-05T02:44:42.158Z,0.00
2019-04-05T02:45:42.145Z,0.00
2019-04-05T02:46:42.082Z,0.00
2019-04-05T02:47:42.058Z,0.00
2019-04-05T02:48:41.992Z,0.00
2019-04-05T02:49:41.953Z,0.00
2019-04-05T02:50:41.912Z,0.00
2019-04-05T02:51:41.856Z,0.00
2019-04-05T02:52:41.805Z,0.00
2019-04-05T02:53:41.770Z,0.00
2019-04-05T02:54:41.719Z,0.00
2019-04-05T02:55:41.695Z,0.00
2019-04-05T02:56:41.621Z,0.00
2019-04-05T02:57:41.585Z,0.00
2019-04-05T02:58:41.560Z,0.00
2019-04-05T02:59:41.510Z,0.00
2019-04-05T03:00:41.444Z,0.00
2019-04-05T03:01:41.399Z,0.00
2019-04-05T03:02:41.349Z,0.00
2019-04-05T03:03:41.313Z,0.00
2019-04-05T03:04:41.292Z,0.00
2019-04-05T03:05:41.218Z,0.00
2019-04-05T03:06:41.176Z,0.00
2019-04-05T03:07:41.131Z,0.00
2019-04-05T03:08:41.091Z,0.00
2019-04-05T03:09:41.043Z,0.00
2019-04-05T03:10:41.030Z,0.00
2019-04-05T03:11:40.959Z,0.00
2019-04-05T03:12:40.997Z,0.00
2019-04-05T03:13:40.896Z,0.00
2019-04-05T03:14:40.817Z,0.00
2019-04-05T03:15:40.771Z,0.00
2019-04-05T03:16:41.838Z,0.00
2019-04-05T03:17:40.690Z,0.00
2019-04-05T03:18:40.666Z,0.00
2019-04-05T03:19:40.616Z,0.00
2019-04-05T03:20:40.556Z,0.00
2019-04-05T03:21:40.516Z,0.00
2019-04-05T03:22:40.500Z,0.00
2019-04-05T03:23:40.426Z,0.00
2019-04-05T03:24:40.427Z,0.00
2019-04-05T03:25:40.334Z,0.00
2019-04-05T03:26:40.284Z,0.00
2019-04-05T03:27:40.241Z,0.00
2019-04-05T03:28:40.198Z,0.00
2019-04-05T03:29:40.183Z,0.00
2019-04-05T03:30:40.115Z,0.00
2019-04-05T03:31:40.080Z,0.00
2019-04-05T03:32:40.033Z,0.00
2019-04-05T03:33:39.992Z,0.00
2019-04-05T03:34:39.984Z,0.00
2019-04-05T03:35:39.896Z,0.00
2019-04-05T03:36:39.854Z,0.00
2019-04-05T03:37:39.799Z,0.00
2019-04-05T03:38:39.756Z,0.00
2019-04-05T03:39:39.750Z,0.00
2019-04-05T03:40:39.673Z,0.00
2019-04-05T03:41:39.633Z,0.00
2019-04-05T03:42:39.585Z,0.00
2019-04-05T03:43:39.534Z,0.00
2019-04-05T03:44:39.516Z,0.00
2019-04-05T03:45:39.438Z,0.00
2019-04-05T03:46:54.737Z,0.00
2019-04-05T03:47:39.354Z,0.00
2019-04-05T03:48:39.308Z,0.00
2019-04-05T03:49:39.296Z,0.00
2019-04-05T03:50:39.227Z,0.00
2019-04-05T03:51:39.176Z,0.00
2019-04-05T03:52:39.132Z,0.00
2019-04-05T03:53:39.109Z,0.00
2019-04-05T03:54:39.076Z,0.00
2019-04-05T03:55:39.013Z,0.00
2019-04-05T03:56:38.962Z,0.00
2019-04-05T03:57:38.914Z,0.00
2019-04-05T03:58:38.880Z,0.00
2019-04-05T03:59:38.823Z,0.00
2019-04-05T04:00:38.815Z,0.00
2019-04-05T04:01:38.746Z,0.00
2019-04-05T04:02:38.694Z,0.00
2019-04-05T04:03:38.651Z,0.00
2019-04-05T04:04:38.605Z,0.00
2019-04-05T04:05:38.579Z,0.00
2019-04-05T04:06:38.518Z,0.00
2019-04-05T04:07:38.475Z,0.00
2019-04-05T04:08:38.427Z,0.00
2019-04-05T04:09:38.412Z,0.00
2019-04-05T04:10:38.344Z,0.00
2019-04-05T04:11:38.292Z,0.00
2019-04-05T04:12:38.255Z,0.00
2019-04-05T04:13:38.205Z,0.00
2019-04-05T04:14:38.183Z,0.00
2019-04-05T04:15:38.143Z,0.00
2019-04-05T04:16:38.075Z,0.00
2019-04-05T04:17:38.022Z,0.00
2019-04-05T04:18:37.975Z,0.00
2019-04-05T04:19:37.932Z,0.00
2019-04-05T04:20:37.923Z,0.00
2019-04-05T04:21:37.851Z,0.00
2019-04-05T04:22:37.811Z,0.00
2019-04-05T04:23:37.777Z,0.00
2019-04-05T04:24:37.708Z,0.00
2019-04-05T04:25:37.697Z,0.00
2019-04-05T04:26:37.637Z,0.00
2019-04-05T04:27:37.606Z,0.00
2019-04-05T04:28:37.553Z,0.00
2019-04-05T04:29:37.499Z,0.00
2019-04-05T04:30:37.480Z,0.00
2019-04-05T04:31:37.410Z,0.00
2019-04-05T04:32:37.362Z,0.00
2019-04-05T04:33:37.344Z,0.00
2019-04-05T04:34:37.270Z,4.00
2019-04-05T04:35:37.227Z,4.00
2019-04-05T04:36:37.182Z,4.00
2019-04-05T04:37:37.132Z,4.00
2019-04-05T04:38:37.128Z,4.00
2019-04-05T04:39:37.078Z,8.00
2019-04-05T04:40:37.007Z,4.00
2019-04-05T04:41:36.967Z,8.00
2019-04-05T04:42:36.916Z,8.00
2019-04-05T04:43:36.868Z,12.00
2019-04-05T04:44:36.829Z,12.00
2019-04-05T04:45:36.805Z,16.00
2019-04-05T04:46:36.741Z,16.00
2019-04-05T04:47:36.693Z,20.00
2019-04-05T04:48:36.671Z,24.00
2019-04-05T04:49:36.600Z,28.00
2019-04-05T04:50:36.583Z,36.00
2019-04-05T04:51:36.516Z,44.00
2019-04-05T04:52:36.471Z,48.00
2019-04-05T04:53:36.427Z,56.00
2019-04-05T04:54:36.393Z,64.00
2019-04-05T04:55:36.338Z,68.00
2019-04-05T04:56:36.308Z,80.00
2019-04-05T04:57:36.259Z,92.00
2019-04-05T04:58:36.207Z,108.00
2019-04-05T04:59:36.176Z,124.00
2019-04-05T05:00:36.145Z,144.00
2019-04-05T05:01:36.075Z,164.00
2019-04-05T05:02:36.025Z,184.00
2019-04-05T05:03:36.001Z,200.00
2019-04-05T05:04:35.945Z,216.00
2019-04-05T05:05:35.895Z,236.00
2019-04-05T05:06:35.864Z,256.00
2019-04-05T05:07:35.806Z,272.00
2019-04-05T05:08:35.788Z,296.00
2019-04-05T05:09:35.722Z,316.00
2019-04-05T05:10:35.671Z,340.00
2019-04-05T05:11:35.634Z,364.00
2019-04-05T05:12:35.592Z,396.00
2019-04-05T05:13:35.563Z,428.00
2019-04-05T05:14:35.498Z,468.00
2019-04-05T05:15:35.446Z,508.00
2019-04-05T05:16:35.400Z,540.00
2019-04-05T05:17:38.688Z,560.00
2019-04-05T05:18:35.325Z,580.00
2019-04-05T05:19:35.299Z,604.00
2019-04-05T05:20:35.235Z,636.00
2019-04-05T05:21:35.179Z,676.00
2019-04-05T05:22:35.141Z,724.00
2019-04-05T05:23:35.113Z,776.00
2019-04-05T05:24:35.077Z,824.00
2019-04-05T05:25:35.014Z,868.00
2019-04-05T05:26:34.995Z,904.00
2019-04-05T05:27:34.911Z,932.00
2019-04-05T05:28:34.864Z,960.00
2019-04-05T05:29:34.849Z,988.00
2019-04-05T05:30:34.785Z,1020.00
2019-04-05T05:31:34.749Z,1060.00
2019-04-05T05:32:34.726Z,1120.00
2019-04-05T05:33:34.661Z,1188.00
2019-04-05T05:34:34.609Z,1268.00
2019-04-05T05:35:34.584Z,1352.00
2019-04-05T05:36:34.514Z,1440.00
2019-04-05T05:37:34.483Z,1516.00
2019-04-05T05:38:34.428Z,1592.00
2019-04-05T05:39:34.383Z,1688.00
2019-04-05T05:40:35.552Z,1808.00
2019-04-05T05:41:34.311Z,1968.00
2019-04-05T05:42:34.276Z,2136.00
2019-04-05T05:43:34.207Z,2240.00
2019-04-05T05:44:34.165Z,2284.00
2019-04-05T05:45:34.127Z,2276.00
2019-04-05T05:46:34.070Z,2244.00
2019-04-05T05:47:34.046Z,2200.00
2019-04-05T05:48:33.987Z,2192.00
2019-04-05T05:49:34.013Z,2228.00
2019-04-05T05:50:33.904Z,2312.00
2019-04-05T05:51:33.863Z,2416.00
2019-04-05T05:52:33.857Z,2516.00
2019-04-05T05:53:33.760Z,2616.00
2019-04-05T05:54:33.724Z,2684.00
2019-04-05T05:55:33.677Z,2756.00
2019-04-05T05:56:33.629Z,2852.00
2019-04-05T05:57:33.594Z,2968.00
2019-04-05T05:58:33.574Z,3112.00
2019-04-05T05:59:33.493Z,3260.00
2019-04-05T06:00:33.447Z,3384.00
2019-04-05T06:01:33.433Z,3512.00
2019-04-05T06:02:33.367Z,3652.00
2019-04-05T06:03:33.326Z,3800.00
2019-04-05T06:04:33.300Z,3936.00
2019-04-05T06:05:33.228Z,4088.00
2019-04-05T06:06:33.202Z,4280.00
2019-04-05T06:07:33.143Z,4468.00
2019-04-05T06:08:33.123Z,4676.00
2019-04-05T06:09:33.065Z,4892.00
2019-04-05T06:10:33.017Z,5084.00
2019-04-05T06:11:32.976Z,5256.00
2019-04-05T06:12:32.937Z,5416.00
2019-04-05T06:13:32.878Z,5568.00
2019-04-05T06:14:32.856Z,5728.00
2019-04-05T06:15:32.800Z,5864.00
2019-04-05T06:16:45.563Z,5972.00
2019-04-05T06:17:32.702Z,6084.00
2019-04-05T06:18:32.661Z,6188.00
2019-04-05T06:19:32.645Z,6312.00
2019-04-05T06:20:32.573Z,6424.00
2019-04-05T06:21:32.542Z,6484.00
2019-04-05T06:22:32.493Z,6480.00
2019-04-05T06:23:33.934Z,6356.00
2019-04-05T06:24:32.406Z,6212.00
2019-04-05T06:25:32.383Z,6004.00
2019-04-05T06:26:32.314Z,5756.00
2019-04-05T06:27:35.285Z,5592.00
2019-04-05T06:28:32.265Z,5488.00
2019-04-05T06:29:32.191Z,5516.00
2019-04-05T06:30:32.205Z,5556.00
2019-04-05T06:31:32.099Z,5552.00
2019-04-05T06:32:32.082Z,5608.00
2019-04-05T06:33:32.213Z,5744.00
2019-04-05T06:34:31.971Z,6020.00
2019-04-05T06:35:31.955Z,6352.00
2019-04-05T06:36:31.885Z,6692.00
2019-04-05T06:37:31.836Z,7100.00
2019-04-05T06:38:31.792Z,7464.00
2019-04-05T06:39:31.752Z,7832.00
2019-04-05T06:40:40.732Z,8144.00
2019-04-05T06:41:31.693Z,8396.00
2019-04-05T06:42:31.630Z,8684.00
2019-04-05T06:43:31.586Z,9152.00
2019-04-05T06:44:31.583Z,9836.00
2019-04-05T06:45:31.491Z,10588.00
2019-04-05T06:46:31.476Z,11608.00
2019-04-05T06:47:31.415Z,11472.00
2019-04-05T06:48:31.369Z,11048.00
2019-04-05T06:49:31.328Z,10992.00
2019-04-05T06:50:31.287Z,11256.00
2019-04-05T06:51:31.309Z,11628.00
2019-04-05T06:52:31.289Z,12048.00
2019-04-05T06:53:31.162Z,12460.00
2019-04-05T06:54:31.114Z,12496.00
2019-04-05T06:55:31.088Z,12720.00
2019-04-05T06:56:31.031Z,14620.00
2019-04-05T06:57:31.005Z,12832.00
2019-04-05T06:58:30.947Z,13912.00
2019-04-05T06:59:30.906Z,12276.00
2019-04-05T07:00:30.874Z,11448.00
2019-04-05T07:01:30.962Z,11584.00
2019-04-05T07:02:30.884Z,12016.00
2019-04-05T07:03:30.794Z,15336.00
2019-04-05T07:04:31.204Z,13428.00
2019-04-05T07:05:30.673Z,14016.00
2019-04-05T07:06:30.642Z,13300.00
2019-04-05T07:07:30.601Z,12572.00
2019-04-05T07:08:30.796Z,12108.00
2019-04-05T07:09:30.498Z,11760.00
2019-04-05T07:10:30.509Z,11296.00
2019-04-05T07:11:30.402Z,10800.00
2019-04-05T07:12:30.395Z,10536.00
2019-04-05T07:13:30.526Z,11100.00
2019-04-05T07:14:30.298Z,9908.00
2019-04-05T07:15:30.257Z,9364.00
2019-04-05T07:16:30.289Z,9120.00
2019-04-05T07:17:30.172Z,8728.00
2019-04-05T07:18:35.650Z,8136.00
2019-04-05T07:19:30.125Z,8048.00
2019-04-05T07:20:30.080Z,8084.00
2019-04-05T07:21:30.026Z,8288.00
2019-04-05T07:22:37.207Z,8656.00
2019-04-05T07:23:29.927Z,8936.00
2019-04-05T07:24:29.879Z,9152.00
2019-04-05T07:25:29.889Z,9380.00
2019-04-05T07:26:29.886Z,9432.00
2019-04-05T07:27:29.766Z,9436.00
2019-04-05T07:28:29.716Z,9608.00
2019-04-05T07:29:29.683Z,9896.00
2019-04-05T07:30:29.660Z,10344.00
2019-04-05T07:31:29.590Z,10652.00
2019-04-05T07:32:31.294Z,11100.00
2019-04-05T07:33:29.527Z,11568.00
2019-04-05T07:34:29.475Z,12080.00
2019-04-05T07:35:33.695Z,12672.00
2019-04-05T07:36:29.439Z,13120.00
2019-04-05T07:37:29.355Z,13752.00
2019-04-05T07:38:29.384Z,14096.00
2019-04-05T07:39:29.302Z,14284.00
2019-04-05T07:40:29.244Z,14996.00
2019-04-05T07:41:31.683Z,17504.00
2019-04-05T07:42:29.157Z,21184.00
2019-04-05T07:43:29.187Z,28928.00
2019-04-05T07:44:29.088Z,29376.00
2019-04-05T07:45:29.017Z,28608.00
2019-04-05T07:46:29.021Z,29696.00
2019-04-05T07:47:28.932Z,31744.00
2019-04-05T07:48:28.925Z,24640.00
2019-04-05T07:49:28.859Z,23072.00
2019-04-05T07:50:28.831Z,19200.00
2019-04-05T07:51:28.819Z,20384.00
2019-04-05T07:52:28.739Z,27584.00
2019-04-05T07:53:28.681Z,30464.00
2019-04-05T07:54:28.668Z,27264.00
2019-04-05T07:55:28.624Z,22528.00
2019-04-05T07:56:28.578Z,18496.00
2019-04-05T07:57:28.533Z,14012.00
2019-04-05T07:58:28.501Z,12872.00
2019-04-05T07:59:28.490Z,11916.00
2019-04-05T08:00:28.427Z,13312.00
2019-04-05T08:01:28.369Z,15296.00
2019-04-05T08:02:28.331Z,18112.00
2019-04-05T08:03:28.297Z,21824.00
2019-04-05T08:04:28.322Z,22016.00
2019-04-05T08:05:28.269Z,18976.00
2019-04-05T08:06:28.217Z,17184.00
2019-04-05T08:07:28.167Z,17280.00
2019-04-05T08:08:28.116Z,18144.00
2019-04-05T08:09:28.108Z,17248.00
2019-04-05T08:10:28.045Z,16320.00
2019-04-05T08:11:28.038Z,17280.00
2019-04-05T08:12:27.967Z,18048.00
2019-04-05T08:13:27.928Z,23072.00
2019-04-05T08:14:27.877Z,27232.00
2019-04-05T08:15:27.856Z,23872.00
2019-04-05T08:16:27.808Z,22592.00
2019-04-05T08:17:27.875Z,21984.00
2019-04-05T08:18:27.736Z,24640.00
2019-04-05T08:19:27.702Z,17472.00
2019-04-05T08:20:27.649Z,18560.00
2019-04-05T08:21:27.651Z,22752.00
2019-04-05T08:22:27.586Z,24960.00
2019-04-05T08:23:27.586Z,28736.00
2019-04-05T08:24:27.521Z,24832.00
2019-04-05T08:25:27.454Z,28992.00
2019-04-05T08:26:27.541Z,24896.00
2019-04-05T08:27:27.401Z,21888.00
2019-04-05T08:28:29.653Z,26720.00
2019-04-05T08:29:27.323Z,31904.00
2019-04-05T08:30:27.328Z,20288.00
2019-04-05T08:31:27.351Z,17504.00
2019-04-05T08:32:27.195Z,14852.00
2019-04-05T08:33:27.170Z,19392.00
2019-04-05T08:34:27.143Z,15716.00
2019-04-05T08:35:27.111Z,15876.00
2019-04-05T08:36:27.069Z,20416.00
2019-04-05T08:37:27.021Z,14532.00
2019-04-05T08:38:27.044Z,19648.00
2019-04-05T08:39:26.953Z,14188.00
2019-04-05T08:40:26.910Z,15016.00
2019-04-05T08:41:26.921Z,18592.00
2019-04-05T08:42:26.831Z,14440.00
2019-04-05T08:43:26.800Z,14168.00
2019-04-05T08:44:26.763Z,15060.00
2019-04-05T08:45:26.719Z,15208.00
2019-04-05T08:46:26.789Z,22528.00
2019-04-05T08:47:26.642Z,18048.00
2019-04-05T08:48:26.975Z,17664.00
2019-04-05T08:49:26.581Z,27040.00
2019-04-05T08:50:26.601Z,19520.00
2019-04-05T08:51:26.584Z,17472.00
2019-04-05T08:52:27.134Z,17408.00
2019-04-05T08:53:26.438Z,18976.00
2019-04-05T08:54:32.441Z,22208.00
2019-04-05T08:55:26.379Z,26592.00
2019-04-05T08:56:26.347Z,35072.00
2019-04-05T08:57:26.386Z,24416.00
2019-04-05T08:58:33.248Z,17632.00
2019-04-05T08:59:26.200Z,14264.00
2019-04-05T09:00:26.234Z,14252.00
2019-04-05T09:01:26.136Z,15620.00
2019-04-05T09:02:26.156Z,17132.00
2019-04-05T09:03:26.056Z,17952.00
2019-04-05T09:04:26.009Z,18336.00
2019-04-05T09:05:25.974Z,19072.00
2019-04-05T09:06:25.934Z,19936.00
2019-04-05T09:07:25.891Z,20288.00
2019-04-05T09:08:25.878Z,19040.00
2019-04-05T09:09:25.845Z,16748.00
2019-04-05T09:10:25.772Z,15496.00
2019-04-05T09:11:25.727Z,14920.00
2019-04-05T09:12:25.839Z,14612.00
2019-04-05T09:13:25.661Z,14448.00
2019-04-05T09:14:25.663Z,14736.00
2019-04-05T09:15:25.767Z,15112.00
2019-04-05T09:16:25.704Z,14404.00
2019-04-05T09:17:25.492Z,13280.00
2019-04-05T09:18:25.624Z,12156.00
2019-04-05T09:19:25.481Z,11212.00
2019-04-05T09:20:25.377Z,10664.00
2019-04-05T09:21:25.362Z,10728.00
2019-04-05T09:22:25.302Z,11272.00
2019-04-05T09:23:25.274Z,11780.00
2019-04-05T09:24:25.252Z,11160.00
2019-04-05T09:25:25.206Z,10116.00
2019-04-05T09:26:25.149Z,9204.00
2019-04-05T09:27:25.107Z,8812.00
2019-04-05T09:28:25.074Z,8700.00
2019-04-05T09:29:25.339Z,8888.00
2019-04-05T09:30:25.012Z,9128.00
2019-04-05T09:31:24.943Z,9232.00
2019-04-05T09:32:24.907Z,9864.00
2019-04-05T09:33:24.865Z,11340.00
2019-04-05T09:34:24.827Z,13088.00
2019-04-05T09:35:24.828Z,14280.00
2019-04-05T09:36:24.782Z,15520.00
2019-04-05T09:37:24.696Z,16980.00
2019-04-05T09:38:24.686Z,16892.00
2019-04-05T09:39:24.624Z,15660.00
2019-04-05T09:40:24.600Z,15500.00
2019-04-05T09:41:24.659Z,15696.00
2019-04-05T09:42:24.506Z,15216.00
2019-04-05T09:43:24.462Z,14240.00
2019-04-05T09:44:24.428Z,13620.00
2019-04-05T09:45:24.386Z,13560.00
2019-04-05T09:46:24.381Z,13816.00
2019-04-05T09:47:24.297Z,15116.00
2019-04-05T09:48:24.251Z,16520.00
2019-04-05T09:49:36.170Z,17920.00
2019-04-05T09:50:24.188Z,18432.00
2019-04-05T09:51:24.145Z,19200.00
2019-04-05T09:52:24.120Z,20128.00
2019-04-05T09:53:24.052Z,21152.00
2019-04-05T09:54:24.022Z,19936.00
2019-04-05T09:55:23.992Z,18560.00
2019-04-05T09:56:23.964Z,17472.00
2019-04-05T09:57:23.918Z,18496.00
2019-04-05T09:58:23.881Z,20992.00
2019-04-05T09:59:23.818Z,21408.00
2019-04-05T10:00:23.785Z,19168.00
2019-04-05T10:01:23.735Z,16968.00
2019-04-05T10:02:23.708Z,15848.00
2019-04-05T10:03:23.685Z,16284.00
2019-04-05T10:04:23.617Z,18368.00
2019-04-05T10:05:23.655Z,18304.00
2019-04-05T10:06:23.539Z,17020.00
2019-04-05T10:07:23.535Z,16636.00
2019-04-05T10:08:23.514Z,17984.00
2019-04-05T10:09:23.439Z,20576.00
2019-04-05T10:10:23.404Z,19680.00
2019-04-05T10:11:23.328Z,17888.00
2019-04-05T10:12:23.303Z,16496.00
2019-04-05T10:13:23.259Z,16196.00
2019-04-05T10:14:23.270Z,16068.00
2019-04-05T10:15:23.208Z,15540.00
2019-04-05T10:16:23.129Z,16604.00
2019-04-05T10:17:23.103Z,20768.00
2019-04-05T10:18:23.087Z,22656.00
2019-04-05T10:19:23.040Z,21312.00
2019-04-05T10:20:23.032Z,20736.00
2019-04-05T10:21:22.939Z,23840.00
2019-04-05T10:22:22.908Z,27232.00
2019-04-05T10:23:22.865Z,26016.00
2019-04-05T10:24:22.835Z,24416.00
2019-04-05T10:25:22.841Z,23488.00
2019-04-05T10:26:22.757Z,22880.00
2019-04-05T10:27:23.084Z,24256.00
2019-04-05T10:28:22.675Z,27520.00
2019-04-05T10:29:22.674Z,29568.00
2019-04-05T10:30:22.584Z,28608.00
2019-04-05T10:31:22.558Z,26816.00
2019-04-05T10:32:22.519Z,26272.00
2019-04-05T10:33:22.478Z,26784.00
2019-04-05T10:34:22.463Z,28576.00
2019-04-05T10:35:22.402Z,28256.00
2019-04-05T10:36:22.340Z,32192.00
2019-04-05T10:37:22.349Z,35840.00
2019-04-05T10:38:22.289Z,29888.00
2019-04-05T10:39:22.238Z,24928.00
2019-04-05T10:40:22.229Z,25632.00
2019-04-05T10:41:23.161Z,30560.00
2019-04-05T10:42:22.149Z,37312.00
2019-04-05T10:43:22.099Z,27776.00
2019-04-05T10:44:22.040Z,24032.00
2019-04-05T10:45:22.028Z,23744.00
2019-04-05T10:46:22.011Z,24160.00
2019-04-05T10:47:21.938Z,22432.00
2019-04-05T10:48:21.903Z,21792.00
2019-04-05T10:49:21.877Z,24608.00
2019-04-05T10:50:21.856Z,28480.00
2019-04-05T10:51:21.823Z,30368.00
2019-04-05T10:52:21.760Z,29280.00
2019-04-05T10:53:21.708Z,29504.00
2019-04-05T10:54:21.671Z,32032.00
2019-04-05T10:55:21.681Z,32928.00
2019-04-05T10:56:21.598Z,31424.00
2019-04-05T10:57:21.614Z,29056.00
2019-04-05T10:58:21.539Z,27520.00
2019-04-05T10:59:21.493Z,25312.00
2019-04-05T11:00:21.473Z,21728.00
2019-04-05T11:01:21.442Z,18880.00
2019-04-05T11:02:21.385Z,18080.00
2019-04-05T11:03:21.378Z,18624.00
2019-04-05T11:04:21.312Z,17856.00
2019-04-05T11:05:21.272Z,16092.00
2019-04-05T11:06:21.278Z,16284.00
2019-04-05T11:07:21.193Z,17696.00
2019-04-05T11:08:21.175Z,19552.00
2019-04-05T11:09:21.156Z,21024.00
2019-04-05T11:10:21.097Z,20896.00
2019-04-05T11:11:21.103Z,20864.00
2019-04-05T11:12:21.021Z,20864.00
2019-04-05T11:13:21.003Z,20608.00
2019-04-05T11:14:20.931Z,20672.00
2019-04-05T11:15:20.918Z,20096.00
2019-04-05T11:16:20.895Z,18496.00
2019-04-05T11:17:20.838Z,18592.00
2019-04-05T11:18:20.783Z,20480.00
2019-04-05T11:19:20.737Z,23168.00
2019-04-05T11:20:21.736Z,23520.00
2019-04-05T11:21:20.679Z,21248.00
2019-04-05T11:22:21.182Z,18528.00
2019-04-05T11:23:21.437Z,15200.00
2019-04-05T11:24:20.587Z,13216.00
2019-04-05T11:25:21.109Z,12712.00
2019-04-05T11:26:20.516Z,12884.00
2019-04-05T11:27:20.450Z,13616.00
2019-04-05T11:28:20.405Z,15488.00
2019-04-05T11:29:20.367Z,18432.00
2019-04-05T11:30:20.376Z,20320.00
2019-04-05T11:31:20.322Z,20416.00
2019-04-05T11:32:20.237Z,21664.00
2019-04-05T11:33:20.201Z,22944.00
2019-04-05T11:34:20.155Z,23392.00
2019-04-05T11:35:20.174Z,24160.00
2019-04-05T11:36:20.093Z,24576.00
2019-04-05T11:37:20.067Z,24000.00
2019-04-05T11:38:20.009Z,23456.00
2019-04-05T11:39:19.978Z,23904.00
2019-04-05T11:40:19.950Z,23488.00
2019-04-05T11:41:19.907Z,22368.00
2019-04-05T11:42:19.882Z,21120.00
2019-04-05T11:43:19.816Z,20704.00
2019-04-05T11:44:19.782Z,19744.00
2019-04-05T11:45:19.752Z,17920.00
2019-04-05T11:46:19.704Z,16512.00
2019-04-05T11:47:19.922Z,16420.00
2019-04-05T11:48:19.610Z,16596.00
2019-04-05T11:49:19.600Z,16152.00
2019-04-05T11:50:19.572Z,14976.00
2019-04-05T11:51:19.515Z,15228.00
2019-04-05T11:52:19.455Z,16312.00
2019-04-05T11:53:21.855Z,16648.00
2019-04-05T11:54:19.386Z,17408.00
2019-04-05T11:55:19.346Z,19808.00
2019-04-05T11:56:20.059Z,21312.00
2019-04-05T11:57:19.263Z,23040.00
2019-04-05T11:58:19.237Z,20224.00
2019-04-05T11:59:19.209Z,18816.00
2019-04-05T12:00:19.181Z,17856.00
2019-04-05T12:01:19.105Z,17040.00
2019-04-05T12:02:19.077Z,16268.00
2019-04-05T12:03:19.041Z,16160.00
2019-04-05T12:04:19.004Z,16744.00
2019-04-05T12:05:20.384Z,16676.00
2019-04-05T12:06:18.934Z,16188.00
2019-04-05T12:07:21.720Z,17152.00
2019-04-05T12:08:18.850Z,19104.00
2019-04-05T12:09:18.805Z,19616.00
2019-04-05T12:10:19.564Z,18880.00
2019-04-05T12:11:18.740Z,18752.00
2019-04-05T12:12:18.675Z,19392.00
2019-04-05T12:13:18.648Z,18848.00
2019-04-05T12:14:29.690Z,17792.00
2019-04-05T12:15:18.554Z,17952.00
2019-04-05T12:16:18.524Z,18528.00
2019-04-05T12:17:18.496Z,18656.00
2019-04-05T12:18:19.689Z,17952.00
2019-04-05T12:19:18.426Z,16616.00
2019-04-05T12:20:18.362Z,15648.00
2019-04-05T12:21:20.724Z,15048.00
2019-04-05T12:22:19.933Z,14352.00
2019-04-05T12:23:18.246Z,13636.00